createdAt,value
2023-01-27T00:01:36.352Z,102037.88
2023-01-27T00:04:05.119Z,102037.32
2023-01-27T00:06:36.590Z,102034.92
2023-01-27T00:09:04.843Z,102034.38
2023-01-27T00:11:52.075Z,102031.77
2023-01-27T00:14:20.420Z,102032.88
2023-01-27T00:16:48.753Z,102033.60
2023-01-27T00:19:20.026Z,102032.08
2023-01-27T00:22:06.667Z,102032.98
2023-01-27T00:24:37.899Z,102026.00
2023-01-27T00:27:11.554Z,102045.95
2023-01-27T00:29:40.892Z,102047.59
2023-01-27T00:32:28.911Z,102045.92
2023-01-27T00:34:57.206Z,102050.12
2023-01-27T00:37:25.502Z,102050.60
2023-01-27T00:39:53.924Z,102051.70
2023-01-27T00:42:22.290Z,102054.59
2023-01-27T00:45:10.044Z,102060.30
2023-01-27T00:47:38.366Z,102059.70
2023-01-27T00:50:07.392Z,102060.95
2023-01-27T00:52:36.848Z,102066.48
2023-01-27T00:55:05.444Z,102063.88
2023-01-27T00:57:33.863Z,102060.48
2023-01-27T01:00:02.188Z,102045.30
2023-01-27T01:02:32.256Z,102062.61
2023-01-27T01:05:00.562Z,102064.30
2023-01-27T01:07:30.338Z,102065.05
2023-01-27T01:09:58.820Z,102063.34
2023-01-27T01:12:27.081Z,102065.16
2023-01-27T01:14:55.348Z,102068.08
2023-01-27T01:17:23.645Z,102070.86
2023-01-27T01:19:51.861Z,102072.15
2023-01-27T01:22:20.289Z,102075.05
2023-01-27T01:24:48.883Z,102070.13
2023-01-27T01:27:17.495Z,102072.70
2023-01-27T01:29:45.769Z,102067.06
2023-01-27T01:32:14.349Z,102069.56
2023-01-27T01:34:43.830Z,102073.67
2023-01-27T01:37:12.212Z,102075.48
2023-01-27T01:39:40.506Z,102083.24
2023-01-27T01:42:08.967Z,102081.96
2023-01-27T01:44:37.362Z,102081.58
2023-01-27T01:47:05.658Z,102067.45
2023-01-27T01:49:39.179Z,102079.15
2023-01-27T01:52:16.100Z,102081.65
2023-01-27T01:54:50.805Z,102080.64
2023-01-27T01:57:25.746Z,102075.56
2023-01-27T01:59:58.825Z,102075.54
2023-01-27T02:02:29.090Z,102076.02
2023-01-27T02:05:03.119Z,102077.23
2023-01-27T02:07:38.427Z,102074.14
2023-01-27T02:10:07.047Z,102078.70
2023-01-27T02:12:37.387Z,102058.35
2023-01-27T02:15:10.273Z,102082.99
2023-01-27T02:17:39.042Z,102081.98
2023-01-27T02:20:28.320Z,102081.45
2023-01-27T02:23:03.904Z,102084.98
2023-01-27T02:25:35.272Z,102085.45
2023-01-27T02:28:08.893Z,102083.77
2023-01-27T02:30:37.338Z,102087.20
2023-01-27T02:33:12.736Z,102086.41
2023-01-27T02:35:55.937Z,102090.50
2023-01-27T02:38:25.826Z,102095.04
2023-01-27T02:41:00.813Z,102094.25
2023-01-27T02:43:29.117Z,102092.12
2023-01-27T02:45:57.577Z,102091.61
2023-01-27T02:48:26.326Z,102084.34
2023-01-27T02:50:54.523Z,102066.48
2023-01-27T02:53:23.131Z,102099.02
2023-01-27T02:55:51.496Z,102096.88
2023-01-27T02:58:19.633Z,102092.66
2023-01-27T03:00:49.601Z,102088.91
2023-01-27T03:03:18.022Z,102090.80
2023-01-27T03:05:46.804Z,102090.88
2023-01-27T03:08:15.897Z,102094.79
2023-01-27T03:10:44.431Z,102094.34
2023-01-27T03:13:14.019Z,102097.58
2023-01-27T03:16:00.714Z,102096.95
2023-01-27T03:18:30.465Z,102098.60
2023-01-27T03:21:04.317Z,102098.17
2023-01-27T03:23:35.009Z,102104.25
2023-01-27T03:26:07.311Z,102110.20
2023-01-27T03:28:36.417Z,102114.22
2023-01-27T03:31:19.641Z,102113.86
2023-01-27T03:33:53.865Z,102116.20
2023-01-27T03:37:02.899Z,102118.00
2023-01-27T03:39:49.749Z,102111.06
2023-01-27T03:42:36.359Z,102116.36
2023-01-27T03:45:23.462Z,102121.44
2023-01-27T03:47:52.251Z,102117.43
2023-01-27T03:50:20.680Z,102129.73
2023-01-27T03:53:03.584Z,102130.58
2023-01-27T03:55:33.296Z,102115.20
2023-01-27T03:58:14.809Z,102130.75
2023-01-27T04:00:43.136Z,102117.90
2023-01-27T04:03:30.098Z,102139.23
2023-01-27T04:06:16.787Z,102134.92
2023-01-27T04:08:45.025Z,102134.49
2023-01-27T04:11:32.027Z,102137.23
2023-01-27T04:14:03.102Z,102140.64
2023-01-27T04:16:31.889Z,102144.51
2023-01-27T04:19:00.412Z,102145.63
2023-01-27T04:21:28.691Z,102147.05
2023-01-27T04:23:56.891Z,102150.00
2023-01-27T04:26:38.670Z,102152.46
2023-01-27T04:29:07.457Z,102140.87
2023-01-27T04:31:35.676Z,102158.70
2023-01-27T04:34:04.238Z,102160.70
2023-01-27T04:36:32.674Z,102157.89
2023-01-27T04:39:00.759Z,102157.72
2023-01-27T04:41:29.269Z,102159.64
2023-01-27T04:43:57.489Z,102165.39
2023-01-27T04:46:25.734Z,102168.27
2023-01-27T04:48:53.993Z,102165.72
2023-01-27T04:51:22.228Z,102163.35
2023-01-27T04:53:50.473Z,102164.78
2023-01-27T04:56:22.253Z,102166.98
2023-01-27T04:58:51.163Z,102166.49
2023-01-27T05:01:19.327Z,102170.76
2023-01-27T05:03:47.536Z,102173.70
2023-01-27T05:06:19.109Z,102175.02
2023-01-27T05:08:48.492Z,102183.13
2023-01-27T05:11:19.151Z,102185.46
2023-01-27T05:13:47.665Z,102184.69
2023-01-27T05:16:21.259Z,102183.30
2023-01-27T05:18:51.027Z,102184.89
2023-01-27T05:21:24.420Z,102187.39
2023-01-27T05:23:52.505Z,102192.60
2023-01-27T05:26:26.561Z,102188.52
2023-01-27T05:28:57.464Z,102189.92
2023-01-27T05:31:31.794Z,102192.05
2023-01-27T05:34:02.195Z,102182.62
2023-01-27T05:36:31.292Z,102201.58
2023-01-27T05:38:59.648Z,102209.26
2023-01-27T05:41:31.616Z,102212.44
2023-01-27T05:43:59.863Z,102212.83
2023-01-27T05:46:30.121Z,102216.19
2023-01-27T05:49:05.695Z,102216.30
2023-01-27T05:51:36.532Z,102224.93
2023-01-27T05:54:04.880Z,102227.96
2023-01-27T05:56:33.305Z,102229.45
2023-01-27T05:59:01.705Z,102224.80
2023-01-27T06:01:32.336Z,102218.04
2023-01-27T06:04:01.269Z,102222.73
2023-01-27T06:06:31.511Z,102241.11
2023-01-27T06:09:00.237Z,102242.38
2023-01-27T06:11:29.296Z,102243.02
2023-01-27T06:13:57.535Z,102243.28
2023-01-27T06:16:26.008Z,102243.82
2023-01-27T06:18:55.011Z,102247.86
2023-01-27T06:21:23.163Z,102252.48
2023-01-27T06:23:51.346Z,102245.55
2023-01-27T06:26:20.588Z,102259.97
2023-01-27T06:28:49.427Z,102267.37
2023-01-27T06:31:21.385Z,102264.36
2023-01-27T06:33:50.896Z,102263.02
2023-01-27T06:36:21.271Z,102268.73
2023-01-27T06:38:50.287Z,102277.12
2023-01-27T06:41:18.953Z,102276.63
2023-01-27T06:43:47.067Z,102281.48
2023-01-27T06:46:18.176Z,102279.77
2023-01-27T06:48:46.444Z,102282.86
2023-01-27T06:51:15.488Z,102286.48
2023-01-27T06:53:43.701Z,102290.48
2023-01-27T06:56:12.132Z,102296.55
2023-01-27T06:58:40.264Z,102300.08
2023-01-27T07:01:08.625Z,102298.69
2023-01-27T07:03:45.121Z,102300.99
2023-01-27T07:06:15.272Z,102285.98
2023-01-27T07:08:46.615Z,102293.61
2023-01-27T07:11:15.138Z,102295.95
2023-01-27T07:13:44.285Z,102298.25
2023-01-27T07:16:12.569Z,102300.67
2023-01-27T07:18:40.849Z,102285.51
2023-01-27T07:21:09.214Z,102304.97
2023-01-27T07:23:37.509Z,102292.91
2023-01-27T07:26:09.936Z,102312.09
2023-01-27T07:28:43.932Z,102315.74
2023-01-27T07:31:12.088Z,102315.77
2023-01-27T07:33:40.273Z,102322.07
2023-01-27T07:36:08.757Z,102319.04
2023-01-27T07:38:36.945Z,102319.16
2023-01-27T07:41:07.529Z,102323.02
2023-01-27T07:43:35.812Z,102325.48
2023-01-27T07:46:08.773Z,102327.86
2023-01-27T07:48:38.592Z,102328.30
2023-01-27T07:51:06.956Z,102323.80
2023-01-27T07:53:35.364Z,102328.11
2023-01-27T07:56:03.741Z,102332.47
2023-01-27T07:58:33.434Z,102333.41
2023-01-27T08:01:05.630Z,102338.79
2023-01-27T08:03:34.923Z,102349.41
2023-01-27T08:06:08.261Z,102344.55
2023-01-27T08:08:38.091Z,102344.90
2023-01-27T08:11:08.865Z,102343.00
2023-01-27T08:13:37.316Z,102339.92
2023-01-27T08:16:09.353Z,102352.33
2023-01-27T08:18:37.580Z,102355.89
2023-01-27T08:21:09.888Z,102354.20
2023-01-27T08:23:38.320Z,102356.80
2023-01-27T08:26:08.380Z,102353.67
2023-01-27T08:28:40.027Z,102355.63
2023-01-27T08:31:11.883Z,102358.48
2023-01-27T08:33:41.267Z,102360.66
2023-01-27T08:36:16.291Z,102363.51
2023-01-27T08:38:51.340Z,102369.16
2023-01-27T08:41:23.980Z,102374.96
2023-01-27T08:43:54.243Z,102377.41
2023-01-27T08:46:22.605Z,102374.75
2023-01-27T08:48:51.922Z,102376.75
2023-01-27T08:51:20.274Z,102384.73
2023-01-27T08:53:48.798Z,102379.33
2023-01-27T08:56:17.109Z,102391.77
2023-01-27T08:58:48.776Z,102392.02
2023-01-27T09:01:20.165Z,102393.08
2023-01-27T09:03:49.109Z,102395.14
2023-01-27T09:06:18.060Z,102400.23
2023-01-27T09:09:06.433Z,102403.67
2023-01-27T09:11:36.308Z,102403.27
2023-01-27T09:14:05.315Z,102406.52
2023-01-27T09:16:34.197Z,102407.63
2023-01-27T09:19:02.576Z,102410.34
2023-01-27T09:21:31.231Z,102413.18
2023-01-27T09:23:59.601Z,102415.52
2023-01-27T09:26:29.397Z,102413.23
2023-01-27T09:28:57.711Z,102415.80
2023-01-27T09:31:26.380Z,102418.52
2023-01-27T09:33:54.688Z,102419.14
2023-01-27T09:36:23.191Z,102417.89
2023-01-27T09:39:08.135Z,102421.52
2023-01-27T09:41:45.500Z,102422.41
2023-01-27T09:44:31.904Z,102424.77
2023-01-27T09:47:27.496Z,102418.08
2023-01-27T09:49:58.967Z,102425.11
2023-01-27T09:52:48.133Z,102428.39
2023-01-27T09:55:35.327Z,102429.55
2023-01-27T09:58:11.366Z,102427.81
2023-01-27T10:00:54.486Z,102433.05
2023-01-27T10:03:53.450Z,102437.19
2023-01-27T10:06:41.718Z,102446.14
2023-01-27T10:09:40.090Z,102450.59
2023-01-27T10:12:20.934Z,102449.21
2023-01-27T10:15:11.426Z,102450.11
2023-01-27T10:18:02.604Z,102457.27
2023-01-27T10:20:46.550Z,102451.55
2023-01-27T10:23:49.210Z,102445.23
2023-01-27T10:26:45.382Z,102432.52
2023-01-27T10:29:34.106Z,102445.11
2023-01-27T10:32:12.127Z,102437.30
2023-01-27T10:34:54.330Z,102440.83
2023-01-27T10:37:40.696Z,102434.48
2023-01-27T10:40:16.791Z,102431.85
2023-01-27T10:42:48.631Z,102430.34
2023-01-27T10:45:40.111Z,102427.71
2023-01-27T10:48:23.043Z,102437.61
2023-01-27T10:51:00.860Z,102440.80
2023-01-27T10:53:35.240Z,102440.06
2023-01-27T10:56:12.443Z,102440.83
2023-01-27T10:58:53.014Z,102420.91
2023-01-27T11:01:30.730Z,102448.77
2023-01-27T11:04:16.510Z,102449.73
2023-01-27T11:06:47.557Z,102448.89
2023-01-27T11:09:24.742Z,102450.05
2023-01-27T11:11:54.258Z,102450.42
2023-01-27T11:14:45.255Z,102450.83
2023-01-27T11:17:32.559Z,102458.65
2023-01-27T11:20:19.513Z,102456.67
2023-01-27T11:22:56.804Z,102461.66
2023-01-27T11:25:34.603Z,102462.91
2023-01-27T11:28:10.883Z,102459.45
2023-01-27T11:30:51.702Z,102459.44
2023-01-27T11:33:38.703Z,102446.81
2023-01-27T11:36:09.432Z,102464.24
2023-01-27T11:38:37.869Z,102462.63
2023-01-27T11:41:06.455Z,102460.00
2023-01-27T11:43:37.494Z,102465.91
2023-01-27T11:46:14.182Z,102463.67
2023-01-27T11:48:46.208Z,102454.50
2023-01-27T11:51:21.021Z,102443.57
2023-01-27T11:53:58.459Z,102442.31
2023-01-27T11:56:28.713Z,102441.64
2023-01-27T11:59:06.131Z,102444.83
2023-01-27T12:01:51.047Z,102451.26
2023-01-27T12:04:49.291Z,102451.02
2023-01-27T12:07:43.612Z,102438.46
2023-01-27T12:10:34.977Z,102445.25
2023-01-27T12:13:26.621Z,102448.91
2023-01-27T12:16:01.308Z,102447.91
2023-01-27T12:18:34.608Z,102450.54
2023-01-27T12:21:06.987Z,102446.71
2023-01-27T12:23:47.581Z,102450.71
2023-01-27T12:26:34.024Z,102449.04
2023-01-27T12:29:07.143Z,102447.41
2023-01-27T12:31:47.135Z,102436.88
2023-01-27T12:34:24.505Z,102439.70
2023-01-27T12:36:54.867Z,102439.58
2023-01-27T12:39:42.261Z,102440.39
2023-01-27T12:42:40.189Z,102439.48
2023-01-27T12:45:20.943Z,102447.27
2023-01-27T12:48:04.703Z,102448.96
2023-01-27T12:50:35.281Z,102439.61
2023-01-27T12:53:17.042Z,102446.58
2023-01-27T12:56:00.260Z,102462.08
2023-01-27T12:58:54.731Z,102460.39
2023-01-27T13:01:30.227Z,102445.23
2023-01-27T13:04:00.275Z,102460.90
2023-01-27T13:06:42.882Z,102460.50
2023-01-27T13:09:35.285Z,102462.75
2023-01-27T13:12:19.475Z,102463.54
2023-01-27T13:15:18.893Z,102466.38
2023-01-27T13:17:50.559Z,102465.94
2023-01-27T13:20:24.704Z,102468.39
2023-01-27T13:23:05.059Z,102466.11
2023-01-27T13:25:40.279Z,102460.89
2023-01-27T13:28:14.119Z,102461.10
2023-01-27T13:30:47.272Z,102467.96
2023-01-27T13:33:37.963Z,102467.14
2023-01-27T13:36:34.572Z,102474.47
2023-01-27T13:39:20.591Z,102469.87
2023-01-27T13:42:11.915Z,102478.20
2023-01-27T13:44:45.784Z,102485.97
2023-01-27T13:47:23.657Z,102485.48
2023-01-27T13:49:58.192Z,102491.81
2023-01-27T13:52:26.787Z,102493.17
2023-01-27T13:54:55.430Z,102498.77
2023-01-27T13:57:32.897Z,102497.08
2023-01-27T14:00:11.198Z,102501.84
2023-01-27T14:03:13.143Z,102502.10
2023-01-27T14:05:58.357Z,102505.73
2023-01-27T14:08:46.662Z,102500.63
2023-01-27T14:11:15.053Z,102506.23
2023-01-27T14:14:25.054Z,102507.66
2023-01-27T14:17:11.808Z,102506.73
2023-01-27T14:19:43.208Z,102505.77
2023-01-27T14:22:35.867Z,102484.66
2023-01-27T14:25:32.311Z,102509.14
2023-01-27T14:28:21.162Z,102505.64
2023-01-27T14:31:11.149Z,102511.77
2023-01-27T14:34:01.942Z,102514.39
2023-01-27T14:36:47.785Z,102511.00
2023-01-27T14:39:57.462Z,102511.13
2023-01-27T14:42:38.431Z,102515.41
2023-01-27T14:45:19.322Z,102516.02
2023-01-27T14:47:58.835Z,102522.27
2023-01-27T14:50:31.248Z,102516.38
2023-01-27T14:53:27.125Z,102515.14
2023-01-27T14:56:32.712Z,102519.60
2023-01-27T14:59:14.846Z,102525.93
2023-01-27T15:01:56.628Z,102528.08
2023-01-27T15:04:44.475Z,102533.80
2023-01-27T15:07:19.494Z,102541.47
2023-01-27T15:09:51.830Z,102540.48
2023-01-27T15:12:29.013Z,102542.68
2023-01-27T15:15:06.666Z,102546.67
2023-01-27T15:18:00.122Z,102548.98
2023-01-27T15:21:16.278Z,102549.73
2023-01-27T15:23:44.573Z,102540.86
2023-01-27T15:26:22.940Z,102560.20
2023-01-27T15:28:52.478Z,102561.88
2023-01-27T15:31:25.130Z,102562.05
2023-01-27T15:34:02.897Z,102565.47
2023-01-27T15:36:34.828Z,102564.63
2023-01-27T15:39:03.089Z,102573.40
2023-01-27T15:41:31.609Z,102579.88
2023-01-27T15:44:04.302Z,102582.96
2023-01-27T15:46:36.345Z,102579.52
2023-01-27T15:49:14.482Z,102584.58
2023-01-27T15:51:42.840Z,102590.52
2023-01-27T15:54:33.765Z,102592.43
2023-01-27T15:57:06.824Z,102592.05
2023-01-27T15:59:58.421Z,102594.55
2023-01-27T16:02:29.915Z,102592.17
2023-01-27T16:05:26.571Z,102587.95
2023-01-27T16:08:00.579Z,102589.09
2023-01-27T16:10:34.921Z,102587.47
2023-01-27T16:13:22.593Z,102591.80
2023-01-27T16:16:21.257Z,102595.42
2023-01-27T16:19:35.126Z,102596.91
2023-01-27T16:22:08.311Z,102596.27
2023-01-27T16:25:23.642Z,102596.69
2023-01-27T16:28:30.745Z,102598.61
2023-01-27T16:31:12.139Z,102598.19
2023-01-27T16:33:45.369Z,102600.40
2023-01-27T16:36:37.526Z,102575.86
2023-01-27T16:39:21.837Z,102592.21
2023-01-27T16:41:59.908Z,102594.83
2023-01-27T16:44:43.267Z,102595.02
2023-01-27T16:47:41.639Z,102597.41
2023-01-27T16:50:42.313Z,102598.50
2023-01-27T16:53:26.892Z,102603.11
2023-01-27T16:56:01.331Z,102609.78
2023-01-27T16:58:45.519Z,102609.98
2023-01-27T17:01:32.881Z,102614.83
2023-01-27T17:04:18.840Z,102622.30
2023-01-27T17:06:52.008Z,102614.61
2023-01-27T17:09:27.341Z,102596.79
2023-01-27T17:11:55.859Z,102612.88
2023-01-27T17:14:36.367Z,102616.14
2023-01-27T17:17:15.631Z,102617.00
2023-01-27T17:19:47.891Z,102612.51
2023-01-27T17:22:26.557Z,102616.77
2023-01-27T17:25:03.888Z,102620.55
2023-01-27T17:27:37.374Z,102621.44
2023-01-27T17:30:22.897Z,102608.28
2023-01-27T17:32:57.574Z,102626.27
2023-01-27T17:35:40.957Z,102625.06
2023-01-27T17:38:33.293Z,102609.39
2023-01-27T17:41:01.826Z,102635.05
2023-01-27T17:43:34.653Z,102629.33
2023-01-27T17:46:05.950Z,102635.27
2023-01-27T17:48:42.333Z,102637.71
2023-01-27T17:51:15.147Z,102635.37
2023-01-27T17:53:43.740Z,102635.42
2023-01-27T17:56:19.905Z,102638.38
2023-01-27T17:58:53.449Z,102637.17
2023-01-27T18:01:22.880Z,102639.41
2023-01-27T18:03:55.633Z,102644.94
2023-01-27T18:06:28.093Z,102639.45
2023-01-27T18:09:00.590Z,102647.43
2023-01-27T18:11:31.574Z,102644.73
2023-01-27T18:14:10.019Z,102644.07
2023-01-27T18:16:38.710Z,102646.27
2023-01-27T18:19:20.870Z,102643.77
2023-01-27T18:22:01.065Z,102644.59
2023-01-27T18:24:30.392Z,102644.88
2023-01-27T18:26:58.896Z,102643.69
2023-01-27T18:29:39.503Z,102640.33
2023-01-27T18:32:15.841Z,102648.45
2023-01-27T18:34:49.622Z,102648.52
2023-01-27T18:37:26.256Z,102652.20
2023-01-27T18:39:55.988Z,102636.60
2023-01-27T18:42:25.606Z,102659.05
2023-01-27T18:44:55.514Z,102659.83
2023-01-27T18:47:33.864Z,102652.96
2023-01-27T18:50:13.831Z,102652.26
2023-01-27T18:52:42.999Z,102652.23
2023-01-27T18:55:28.915Z,102650.42
2023-01-27T18:57:59.162Z,102652.58
2023-01-27T19:00:31.721Z,102655.94
2023-01-27T19:03:01.503Z,102665.94
2023-01-27T19:05:34.458Z,102660.89
2023-01-27T19:08:04.019Z,102660.03
2023-01-27T19:10:35.622Z,102663.91
2023-01-27T19:13:04.766Z,102665.77
2023-01-27T19:15:35.177Z,102661.89
2023-01-27T19:18:15.232Z,102660.11
2023-01-27T19:20:43.876Z,102660.17
2023-01-27T19:23:17.530Z,102660.58
2023-01-27T19:25:52.908Z,102665.04
2023-01-27T19:28:35.517Z,102673.19
2023-01-27T19:31:06.198Z,102675.11
2023-01-27T19:33:37.300Z,102673.85
2023-01-27T19:36:08.634Z,102670.48
2023-01-27T19:38:37.009Z,102672.64
2023-01-27T19:41:07.463Z,102673.64
2023-01-27T19:43:36.879Z,102673.55
2023-01-27T19:46:19.483Z,102675.96
2023-01-27T19:48:49.570Z,102673.45
2023-01-27T19:51:19.046Z,102678.75
2023-01-27T19:53:47.731Z,102674.02
2023-01-27T19:56:23.528Z,102676.67
2023-01-27T19:58:54.271Z,102672.06
2023-01-27T20:01:25.089Z,102673.86
2023-01-27T20:03:54.769Z,102674.29
2023-01-27T20:06:25.126Z,102677.30
2023-01-27T20:08:59.941Z,102674.48
2023-01-27T20:11:39.970Z,102672.81
2023-01-27T20:14:15.691Z,102669.33
2023-01-27T20:16:44.174Z,102669.66
2023-01-27T20:19:16.754Z,102669.07
2023-01-27T20:21:46.534Z,102673.80
2023-01-27T20:24:16.701Z,102610.16
2023-01-27T20:26:46.054Z,102670.13
2023-01-27T20:29:14.783Z,102670.94
2023-01-27T20:31:43.513Z,102671.75
2023-01-27T20:34:12.066Z,102669.98
2023-01-27T20:36:40.346Z,102674.20
2023-01-27T20:39:08.733Z,102679.16
2023-01-27T20:41:37.109Z,102681.55
2023-01-27T20:44:05.435Z,102677.68
2023-01-27T20:46:33.853Z,102682.05
2023-01-27T20:49:02.326Z,102679.17
2023-01-27T20:51:30.653Z,102672.61
2023-01-27T20:54:00.832Z,102667.92
2023-01-27T20:56:29.260Z,102669.75
2023-01-27T20:58:57.926Z,102669.05
2023-01-27T21:01:26.758Z,102668.33
2023-01-27T21:03:55.156Z,102671.94
2023-01-27T21:06:23.503Z,102669.83
2023-01-27T21:08:51.962Z,102670.96
2023-01-27T21:11:21.559Z,102671.89
2023-01-27T21:13:52.057Z,102671.62
2023-01-27T21:16:21.328Z,102676.76
2023-01-27T21:18:50.035Z,102675.86
2023-01-27T21:21:27.805Z,102676.95
2023-01-27T21:24:00.239Z,102675.96
2023-01-27T21:26:28.721Z,102676.30
2023-01-27T21:28:57.775Z,102677.86
2023-01-27T21:31:30.417Z,102677.50
2023-01-27T21:34:02.003Z,102676.01
2023-01-27T21:36:30.591Z,102680.18
2023-01-27T21:38:59.007Z,102682.98
2023-01-27T21:41:45.977Z,102681.79
2023-01-27T21:44:39.325Z,102679.23
2023-01-27T21:47:10.399Z,102678.04
2023-01-27T21:50:13.170Z,102675.05
2023-01-27T21:52:45.184Z,102673.83
2023-01-27T21:55:22.449Z,102672.59
2023-01-27T21:57:52.955Z,102672.05
2023-01-27T22:00:26.885Z,102674.94
2023-01-27T22:02:57.500Z,102674.30
2023-01-27T22:05:27.716Z,102675.48
2023-01-27T22:07:56.529Z,102672.91
2023-01-27T22:10:29.980Z,102676.00
2023-01-27T22:13:06.195Z,102674.36
2023-01-27T22:15:34.900Z,102675.73
2023-01-27T22:18:03.330Z,102671.67
2023-01-27T22:20:32.208Z,102665.77
2023-01-27T22:23:00.565Z,102664.34
2023-01-27T22:25:28.882Z,102664.05
2023-01-27T22:27:57.249Z,102664.38
2023-01-27T22:30:25.723Z,102661.51
2023-01-27T22:32:54.434Z,102657.96
2023-01-27T22:35:23.010Z,102657.54
2023-01-27T22:37:53.193Z,102659.83
2023-01-27T22:40:21.619Z,102657.31
2023-01-27T22:42:50.302Z,102658.97
2023-01-27T22:45:18.923Z,102661.26
2023-01-27T22:47:48.159Z,102663.50
2023-01-27T22:50:17.097Z,102664.88
2023-01-27T22:52:45.764Z,102662.37
2023-01-27T22:55:15.060Z,102663.94
2023-01-27T22:57:45.489Z,102661.56
2023-01-27T23:00:14.466Z,102659.64
2023-01-27T23:02:42.918Z,102657.16
2023-01-27T23:05:11.557Z,102658.90
2023-01-27T23:07:40.021Z,102661.92
2023-01-27T23:10:09.673Z,102663.52
2023-01-27T23:12:38.289Z,102662.96
2023-01-27T23:15:07.402Z,102658.19
2023-01-27T23:17:36.144Z,102661.88
2023-01-27T23:20:05.453Z,102659.52
2023-01-27T23:22:33.775Z,102662.31
2023-01-27T23:25:02.289Z,102657.48
2023-01-27T23:27:30.721Z,102652.39
2023-01-27T23:29:59.187Z,102656.17
2023-01-27T23:32:27.983Z,102644.89
2023-01-27T23:34:56.616Z,102649.45
2023-01-27T23:37:24.927Z,102648.64
2023-01-27T23:39:53.474Z,102646.09
2023-01-27T23:42:21.997Z,102640.15
2023-01-27T23:44:50.349Z,102636.52
2023-01-27T23:47:18.683Z,102633.96
2023-01-27T23:49:47.552Z,102614.38
2023-01-27T23:52:16.033Z,102631.21
2023-01-27T23:54:44.439Z,102632.34
2023-01-27T23:57:12.904Z,102636.31
2023-01-27T23:59:41.588Z,102634.59
